Time;durP1;ratioP1;P1;durP2;ratioP2;P2;SDS_P1;SDS_P2;PMS_P1;PMS_P2;Temp;Humidity;BMP_temperature;BMP_pressure;BME280_temperature;BME280_humidity;BME280_pressure;Samples;Min_cycle;Max_cycle;Signal;HPM_P1;HPM_P2
2022/04/19 00:00:27;;;;;;;5.22;2.85;;;;;;;10.07;33.05;97505.06;10008881;29;20113;-84
2022/04/19 00:05:48;;;;;;;7.32;2.65;;;;;;;9.94;33.10;97492.41;10008329;29;20079;-83
2022/04/19 00:11:09;;;;;;;5.53;2.90;;;;;;;9.70;33.49;97485.19;10020921;29;20208;-84
2022/04/19 00:16:30;;;;;;;5.32;3.10;;;;;;;9.63;33.79;97483.31;10020976;29;20046;-83
2022/04/19 00:21:52;;;;;;;5.30;2.50;;;;;;;9.61;33.74;97483.19;10008132;29;20041;-85
2022/04/19 00:27:13;;;;;;;5.25;2.95;;;;;;;9.60;33.75;97474.09;10007907;29;20035;-83
2022/04/19 00:32:34;;;;;;;5.13;3.08;;;;;;;9.51;34.19;97466.53;10020810;29;20041;-82
2022/04/19 00:37:55;;;;;;;6.00;2.60;;;;;;;9.41;34.21;97449.88;10007939;29;20073;-81
2022/04/19 00:43:17;;;;;;;4.80;2.78;;;;;;;9.38;34.58;97445.50;10032900;29;20026;-84
2022/04/19 00:48:38;;;;;;;5.07;3.10;;;;;;;9.40;35.00;97434.47;10007988;29;20069;-83
2022/04/19 00:54:03;;;;;;;7.47;2.95;;;;;;;9.45;34.79;97427.13;10008298;29;20046;-82
2022/04/19 00:59:24;;;;;;;4.63;3.08;;;;;;;9.53;34.62;97422.09;10019802;29;20055;-82
2022/04/19 01:04:45;;;;;;;5.57;3.35;;;;;;;9.59;34.65;97421.75;10019326;29;20098;-85
2022/04/19 01:10:07;;;;;;;5.47;2.58;;;;;;;9.51;34.94;97410.81;10007530;29;20057;-83
2022/04/19 01:15:28;;;;;;;5.43;2.53;;;;;;;9.44;35.13;97406.16;10032278;29;20039;-84
2022/04/19 01:20:57;;;;;;;6.18;2.47;;;;;;;9.42;35.28;97406.75;10008707;29;20053;-82
2022/04/19 01:26:19;;;;;;;4.97;2.78;;;;;;;9.40;35.65;97398.25;10019490;29;20026;-84
2022/04/19 01:31:41;;;;;;;5.03;2.70;;;;;;;9.40;35.64;97392.69;10018888;29;20053;-83
2022/04/19 01:37:03;;;;;;;6.15;2.70;;;;;;;9.44;35.65;97392.22;10031848;29;20034;-80
2022/04/19 01:42:24;;;;;;;5.82;3.10;;;;;;;9.42;36.02;97384.47;10006405;29;20082;-83
2022/04/19 01:47:48;;;;;;;4.27;2.50;;;;;;;9.37;36.20;97374.41;10031059;29;20062;-85
2022/04/19 01:53:09;;;;;;;4.28;2.15;;;;;;;9.41;35.91;97376.72;10018876;29;20034;-84
2022/04/19 01:58:31;;;;;;;6.15;2.90;;;;;;;9.38;36.00;97370.28;10018492;29;20122;-81
2022/04/19 02:03:52;;;;;;;4.55;2.53;;;;;;;9.36;36.00;97364.59;10006212;29;20050;-84
2022/04/19 02:09:19;;;;;;;5.60;2.92;;;;;;;9.36;36.53;97361.81;10007197;29;20080;-83
2022/04/19 02:14:41;;;;;;;6.78;2.85;;;;;;;9.35;36.68;97363.09;10006060;29;20121;-81
2022/04/19 02:20:05;;;;;;;6.40;3.20;;;;;;;9.31;36.44;97357.28;10023676;29;20030;-84
2022/04/19 02:25:28;;;;;;;5.78;3.40;;;;;;;9.30;37.34;97355.09;10024642;29;20093;-83
2022/04/19 02:30:52;;;;;;;6.80;3.38;;;;;;;9.31;36.98;97356.53;10025342;29;20099;-81
2022/04/19 02:36:19;;;;;;;5.00;3.10;;;;;;;9.31;36.76;97351.69;10025001;29;20046;-84
2022/04/19 02:41:41;;;;;;;7.55;3.58;;;;;;;9.23;37.18;97353.94;10024153;29;20053;-83
2022/04/19 02:47:04;;;;;;;8.27;3.70;;;;;;;9.25;37.44;97347.78;10013497;29;20026;-79
2022/04/19 02:52:26;;;;;;;7.05;3.80;;;;;;;9.28;37.61;97352.91;10041984;29;20049;-82
2022/04/19 02:57:47;;;;;;;12.38;6.20;;;;;;;9.10;38.16;97352.41;10034482;29;20045;-82
2022/04/19 03:03:10;;;;;;;8.82;4.93;;;;;;;9.04;39.46;97354.06;10039175;29;20069;-83
2022/04/19 03:08:33;;;;;;;10.90;4.82;;;;;;;9.01;39.08;97346.91;10055214;29;20083;-83
2022/04/19 03:13:55;;;;;;;;;;;;;;;9.00;39.77;97351.75;10035653;29;20034;-79
2022/04/19 03:19:16;;;;;;;8.93;5.20;;;;;;;8.95;39.16;97335.34;10039815;29;19930;-82
2022/04/19 03:30:20;;;;;;;9.25;5.75;;;;;;;8.84;40.81;97320.03;10033641;29;20097;-83
2022/04/19 03:35:42;;;;;;;14.05;6.38;;;;;;;8.88;41.28;97323.09;10049996;29;20110;-80
2022/04/19 03:41:04;;;;;;;13.02;6.22;;;;;;;8.87;40.58;97327.91;10030593;29;20054;-80
2022/04/19 03:46:25;;;;;;;11.65;6.35;;;;;;;8.85;41.70;97321.47;10030332;29;20072;-80
2022/04/19 03:51:46;;;;;;;10.20;5.55;;;;;;;8.81;41.63;97319.16;10043331;29;20044;-80
2022/04/19 03:57:07;;;;;;;10.05;5.78;;;;;;;8.78;41.37;97316.81;10061127;29;20078;-81
2022/04/19 04:02:31;;;;;;;9.18;5.47;;;;;;;8.81;41.32;97310.09;10047043;29;20046;-83
2022/04/19 04:07:52;;;;;;;10.00;4.80;;;;;;;8.90;41.69;97306.53;10071838;29;20038;-85
2022/04/19 04:13:16;;;;;;;8.15;4.15;;;;;;;8.91;41.43;97305.19;10047212;29;20082;-83
2022/04/19 04:18:39;;;;;;;9.35;4.22;;;;;;;8.93;41.09;97301.81;10046064;29;20053;-84
2022/04/19 04:24:01;;;;;;;7.82;3.50;;;;;;;8.94;41.41;97303.28;10045850;29;20026;-83
2022/04/19 04:29:27;;;;;;;8.23;3.80;;;;;;;8.97;41.36;97305.59;10047460;29;20048;-81
2022/04/19 04:34:49;;;;;;;5.88;3.53;;;;;;;9.10;41.40;97296.00;10035807;29;20555;-81
2022/04/19 04:40:11;;;;;;;6.57;3.15;;;;;;;9.16;41.14;97280.41;10050305;29;20046;-84
2022/04/19 04:49:35;;;;;;;7.68;3.17;;;;;;;9.25;41.28;97287.25;10017543;29;20034;-83
2022/04/19 04:51:31;;;;;;;13.63;4.40;;;;;;;9.27;41.23;97290.19;10022728;29;20046;-82
2022/04/19 04:56:53;;;;;;;6.80;3.72;;;;;;;9.28;41.05;97283.28;10020040;29;20082;-84
2022/04/19 05:02:16;;;;;;;5.15;3.10;;;;;;;9.42;41.20;97275.09;10019582;29;20047;-84
2022/04/19 05:07:38;;;;;;;10.40;4.05;;;;;;;9.66;41.24;97265.50;10007220;29;20110;-82
2022/04/19 05:12:59;;;;;;;4.85;3.08;;;;;;;9.97;40.77;97256.97;10007078;29;20030;-82
2022/04/19 05:18:20;;;;;;;6.80;3.38;;;;;;;10.16;40.56;97258.09;10006338;29;20031;-84
2022/04/19 05:23:43;;;;;;;6.97;3.63;;;;;;;10.14;40.16;97255.19;10006552;29;20061;-83
2022/04/19 05:29:10;;;;;;;8.00;3.88;;;;;;;10.14;40.38;97249.63;10018423;29;20040;-85
2022/04/19 05:34:32;;;;;;;7.72;3.97;;;;;;;10.27;40.57;97238.63;9993279;29;20098;-84
2022/04/19 05:39:53;;;;;;;7.03;3.10;;;;;;;10.70;40.21;97237.63;10004199;29;20062;-81
2022/04/19 05:45:14;;;;;;;7.45;3.65;;;;;;;12.58;39.29;97232.59;10030747;29;20035;-83
2022/04/19 05:50:35;;;;;;;6.95;3.78;;;;;;;14.12;37.82;97230.22;10006412;29;20026;-84
2022/04/19 06:26:18;;;;;;;6.55;4.25;;;;;;;13.84;35.11;97224.03;12293943;23;20028;31
2022/04/19 06:44:14;;;;;;;6.70;3.10;;;;;;;13.40;34.59;97212.16;11042299;23;20082;-80
2022/04/19 07:08:25;;;;;;;4.68;2.42;;;;;;;18.81;32.92;97203.56;10366513;23;20053;-85
2022/04/19 07:13:46;;;;;;;3.65;2.10;;;;;;;20.16;28.94;97196.91;10060941;29;20049;-86
2022/04/19 07:26:37;;;;;;;8.07;2.28;;;;;;;23.77;26.05;97208.53;10089628;29;20045;-83
2022/04/19 07:30:56;;;;;;;5.00;2.17;;;;;;;29.24;19.55;97199.44;10065460;29;20055;-84
2022/04/19 07:36:19;;;;;;;2.73;1.93;;;;;;;33.09;17.00;97194.41;10072647;29;20101;-86
2022/04/19 07:41:45;;;;;;;5.05;1.92;;;;;;;39.93;12.89;97210.69;10060058;29;20052;-85
2022/04/19 07:47:08;;;;;;;4.45;1.80;;;;;;;42.10;8.67;97192.69;10061422;29;20397;-87
2022/04/19 07:52:31;;;;;;;4.47;1.65;;;;;;;40.62;9.01;97197.09;10047056;29;20041;-84
2022/04/19 07:57:53;;;;;;;2.92;1.92;;;;;;;43.88;6.50;97199.06;10046463;29;20044;-85
2022/04/19 08:03:14;;;;;;;5.85;2.03;;;;;;;36.78;7.16;97200.81;10059067;29;20602;-85
2022/04/19 08:08:36;;;;;;;3.42;2.00;;;;;;;30.33;9.96;97208.41;10059647;29;20057;-85
2022/04/19 08:13:57;;;;;;;3.83;1.90;;;;;;;27.91;11.94;97195.28;10045168;29;20109;-84
2022/04/19 08:19:20;;;;;;;2.60;2.17;;;;;;;25.94;12.72;97193.47;10071144;29;20053;-87
2022/04/19 08:24:42;;;;;;;4.00;2.33;;;;;;;23.09;14.33;97193.00;10071793;29;20052;-84
2022/04/19 08:30:03;;;;;;;4.80;2.50;;;;;;;20.86;16.79;97188.41;10070649;29;20476;-84
2022/04/19 08:35:25;;;;;;;5.97;2.80;;;;;;;19.17;18.40;97196.03;10083828;29;20049;-85
2022/04/19 08:40:47;;;;;;;4.60;2.28;;;;;;;18.63;19.56;97203.06;10057536;29;20056;-86
2022/04/19 08:46:11;;;;;;;3.55;2.22;;;;;;;17.81;20.06;97194.31;10070574;29;20052;-85
2022/04/19 08:51:35;;;;;;;4.50;2.72;;;;;;;18.06;22.02;97196.50;10057576;29;20109;-85
2022/04/19 09:02:37;;;;;;;4.38;2.30;;;;;;;24.36;20.08;97199.66;10074422;29;20476;-83
2022/04/19 09:07:58;;;;;;;;;;;;;;;25.31;16.63;97193.50;10070922;29;20064;-84
2022/04/19 09:13:21;;;;;;;6.40;2.40;;;;;;;25.42;17.24;97197.06;10069552;29;19947;-84
2022/04/19 09:18:42;;;;;;;3.85;2.38;;;;;;;24.98;16.68;97201.97;10069679;29;20052;-84
2022/04/19 09:24:21;;;;;;;5.35;2.25;;;;;;;24.34;17.89;97206.06;10059085;29;20128;-84
2022/04/19 09:29:42;;;;;;;3.22;2.30;;;;;;;24.27;16.94;97205.28;10077337;29;20056;-84
2022/04/19 09:35:03;;;;;;;5.15;2.55;;;;;;;23.83;17.04;97208.56;10064773;29;20049;-84
2022/04/19 09:40:31;;;;;;;4.40;2.78;;;;;;;21.50;18.55;97200.84;10064332;29;20049;-84
2022/04/19 09:45:58;;;;;;;4.95;2.92;;;;;;;18.57;19.83;97217.72;10064783;29;20051;-84
2022/04/19 09:51:19;;;;;;;5.07;3.20;;;;;;;17.35;21.59;97211.19;10037854;29;20056;-85
2022/04/19 09:56:41;;;;;;;7.03;3.15;;;;;;;19.38;21.07;97219.88;10051042;29;20049;-84
2022/04/19 10:13:29;;;;;;;;;;;;;;;31.77;9.83;97221.16;10058654;29;20101;-86
2022/04/19 10:18:50;;;;;;;3.63;2.05;;;;;;;30.97;10.42;97220.06;10053328;29;19931;-85
2022/04/19 10:24:13;;;;;;;4.80;2.45;;;;;;;29.65;11.37;97228.31;10057941;29;20115;-86
2022/04/19 10:29:33;;;;;;;3.55;2.53;;;;;;;27.74;11.66;97228.44;10062302;29;20053;-86
2022/04/19 10:35:01;;;;;;;4.18;2.92;;;;;;;24.20;13.33;97223.75;10062171;29;20052;-84
2022/04/19 10:40:23;;;;;;;3.70;2.80;;;;;;;21.34;14.60;97219.06;10061885;29;20057;-86
2022/04/19 10:45:46;;;;;;;5.15;3.05;;;;;;;19.79;17.33;97217.34;10062103;29;20068;-86
2022/04/19 10:51:27;;;;;;;6.53;2.88;;;;;;;20.01;19.09;97218.56;10075374;29;20049;-87
2022/04/19 11:03:02;;;;;;;4.50;3.25;;;;;;;17.71;19.85;97234.25;10076054;29;20045;-82
2022/04/19 11:08:26;;;;;;;5.93;3.70;;;;;;;15.80;23.46;97255.63;10048365;29;20069;-86
2022/04/19 11:14:24;;;;;;;5.97;3.97;;;;;;;13.87;29.14;97239.59;10061929;29;20129;-87
2022/04/19 11:19:58;;;;;;;8.15;3.85;;;;;;;13.95;28.00;97232.28;10072782;29;20536;-87
2022/04/19 11:25:53;;;;;;;7.25;4.35;;;;;;;15.59;30.22;97234.38;10037966;29;20057;-87
2022/04/19 11:31:14;;;;;;;5.10;2.85;;;;;;;17.93;27.18;97223.63;10029918;29;20485;-83
2022/04/19 11:36:35;;;;;;;5.15;3.13;;;;;;;17.84;25.19;97235.34;10065190;29;20061;-83
2022/04/19 11:47:50;;;;;;;2.50;1.65;;;;;;;16.15;25.79;97247.16;10051829;29;20041;-86
2022/04/19 11:53:16;;;;;;;4.85;1.48;;;;;;;16.65;24.64;97247.56;10050771;29;20174;-86
2022/04/19 11:58:40;;;;;;;3.50;1.40;;;;;;;17.34;23.66;97252.06;10042536;29;20105;-84
2022/04/19 12:04:05;;;;;;;;;;;;;;;15.63;24.66;97266.25;10021226;29;20046;-85
2022/04/19 12:09:26;;;;;;;5.07;1.10;;;;;;;14.22;25.80;97281.22;9981784;29;19925;-79
2022/04/19 12:15:10;;;;;;;3.22;0.57;;;;;;;13.59;26.46;97286.66;10138857;24;20057;-78
2022/04/19 12:20:44;;;;;;;2.30;0.80;;;;;;;13.79;26.69;97298.13;10032172;29;20034;-78
2022/04/19 12:26:06;;;;;;;5.93;1.20;;;;;;;14.20;27.59;97312.00;10024551;29;20046;-79
2022/04/19 12:31:36;;;;;;;12.07;3.00;;;;;;;13.82;32.79;97331.28;10007511;29;20043;-78
2022/04/19 12:43:15;;;;;;;6.03;2.25;;;;;;;11.82;37.60;97347.44;10242101;24;20059;-82
2022/04/19 12:48:37;;;;;;;4.50;2.20;;;;;;;11.90;39.19;97336.72;10121299;29;20032;-82
2022/04/19 12:54:05;;;;;;;5.50;2.35;;;;;;;11.83;40.11;97346.09;10121346;29;20045;-82
2022/04/19 12:59:28;;;;;;;3.40;2.30;;;;;;;12.11;39.50;97344.88;10120279;29;20031;-79
2022/04/19 13:04:49;;;;;;;3.15;1.90;;;;;;;12.64;38.51;97336.50;10121149;29;20033;-84
2022/04/19 13:15:50;;;;;;;4.80;2.33;;;;;;;13.10;37.98;97340.28;10113003;29;20049;-83
2022/04/19 13:21:12;;;;;;;2.83;1.95;;;;;;;12.98;38.22;97339.66;10108599;29;20069;-81
2022/04/19 13:26:34;;;;;;;4.45;1.90;;;;;;;12.27;38.24;97342.97;10120715;29;20040;-83
2022/04/19 13:32:01;;;;;;;3.47;1.90;;;;;;;12.03;39.66;97333.22;10107908;29;20049;-83
2022/04/19 13:43:02;;;;;;;2.67;1.85;;;;;;;12.38;39.51;97335.84;10134149;29;20048;-81
2022/04/19 13:48:23;;;;;;;3.30;1.77;;;;;;;11.64;40.32;97316.34;10116586;29;20029;-83
2022/04/19 13:53:44;;;;;;;3.75;2.00;;;;;;;11.78;40.45;97324.81;10113914;29;20049;-83
2022/04/19 13:59:06;;;;;;;2.47;1.60;;;;;;;11.78;40.37;97322.03;10114404;29;20048;-83
2022/04/19 14:04:27;;;;;;;2.80;1.65;;;;;;;11.82;41.20;97313.88;10113246;29;20049;-83
2022/04/19 14:09:49;;;;;;;3.13;1.65;;;;;;;12.41;39.60;97325.47;10104599;29;20074;-84
2022/04/19 14:15:10;;;;;;;2.08;1.33;;;;;;;11.73;39.13;97352.53;10092473;29;20049;-83
2022/04/19 14:20:31;;;;;;;2.75;1.30;;;;;;;10.14;46.08;97383.50;10130892;29;20101;-80
2022/04/19 14:25:53;;;;;;;3.13;0.85;;;;;;;8.26;49.44;97423.13;10120716;29;20085;-81
2022/04/19 14:36:55;;;;;;;2.95;1.15;;;;;;;7.33;54.80;97414.28;10243314;23;20029;-80
2022/04/19 14:42:17;;;;;;;3.08;1.38;;;;;;;7.64;55.77;97406.91;10110080;29;20049;-82
2022/04/19 14:47:39;;;;;;;2.60;1.10;;;;;;;8.30;55.36;97404.69;10109991;29;20472;-82
2022/04/19 14:53:01;;;;;;;2.58;1.08;;;;;;;8.55;53.29;97406.41;10109331;29;20053;-84
2022/04/19 14:58:23;;;;;;;1.50;0.90;;;;;;;8.69;52.96;97396.28;10121705;29;20041;-84
2022/04/19 15:03:44;;;;;;;1.40;1.00;;;;;;;9.18;53.16;97400.31;10108624;29;20037;-84
2022/04/19 15:09:05;;;;;;;2.88;1.15;;;;;;;9.62;51.54;97412.94;10133690;29;20045;-82
2022/04/19 15:14:26;;;;;;;1.95;1.27;;;;;;;9.62;49.59;97426.13;10120799;29;20033;-84
2022/04/19 15:19:46;;;;;;;3.17;1.15;;;;;;;9.70;49.80;97426.66;10103958;29;20049;-80
2022/04/19 15:25:07;;;;;;;3.15;1.20;;;;;;;10.10;49.21;97436.94;10109674;29;20090;-81
2022/04/19 15:30:29;;;;;;;2.80;1.27;;;;;;;10.89;47.15;97435.59;10114919;29;20056;-82
2022/04/19 15:35:50;;;;;;;2.17;1.40;;;;;;;10.69;46.85;97431.56;10121980;29;20049;-83
2022/04/19 15:41:11;;;;;;;3.22;1.58;;;;;;;9.91;49.09;97446.19;10096373;29;20044;-82
2022/04/19 15:46:31;;;;;;;2.55;1.50;;;;;;;9.28;51.23;97453.16;10111266;29;20048;-79
2022/04/19 15:51:52;;;;;;;3.65;1.30;;;;;;;9.15;51.93;97437.66;10109473;29;20052;-81
2022/04/19 15:57:13;;;;;;;3.40;1.58;;;;;;;9.30;51.95;97444.22;10084616;29;20048;-85
2022/04/19 16:02:35;;;;;;;4.85;1.60;;;;;;;9.39;51.99;97446.22;11211935;23;20133;-82
2022/04/19 16:07:58;;;;;;;3.25;1.48;;;;;;;9.63;51.38;97453.41;10069931;29;20034;-85
2022/04/19 16:13:19;;;;;;;2.03;1.27;;;;;;;9.85;51.04;97456.22;10070365;29;20033;-83
2022/04/19 16:24:20;;;;;;;1.95;0.90;;;;;;;9.52;50.47;97465.19;10070527;29;20065;-82
2022/04/19 16:29:42;;;;;;;1.25;0.95;;;;;;;9.48;51.23;97469.78;10083240;29;20198;-82
2022/04/19 16:35:03;;;;;;;4.95;0.90;;;;;;;9.40;51.03;97467.91;10107660;29;20033;-80
2022/04/19 16:40:24;;;;;;;2.85;0.93;;;;;;;9.42;51.49;97476.41;10081500;29;20021;-85
2022/04/19 16:45:45;;;;;;;2.55;1.25;;;;;;;9.32;51.02;97475.72;10080868;29;20052;-85
2022/04/19 16:51:06;;;;;;;2.03;1.33;;;;;;;9.18;50.92;97483.13;10081523;29;20081;-80
2022/04/19 16:56:26;;;;;;;2.13;1.30;;;;;;;9.21;51.27;97490.28;10080763;29;20045;-85
2022/04/19 17:01:47;;;;;;;3.35;1.48;;;;;;;9.47;51.37;97488.56;10630710;23;20069;-84
2022/04/19 17:07:09;;;;;;;2.70;1.13;;;;;;;9.69;51.27;97503.97;10080807;29;20030;-82
2022/04/19 17:12:31;;;;;;;2.13;1.35;;;;;;;9.87;50.44;97515.63;10065258;29;20038;-80
2022/04/19 17:17:52;;;;;;;2.42;1.73;;;;;;;9.37;50.61;97543.59;10077469;29;20061;-83
2022/04/19 17:29:32;;;;;;;1.60;1.30;;;;;;;6.39;62.46;97562.47;11906051;23;19908;-81
2022/04/19 17:34:54;;;;;;;1.88;1.10;;;;;;;5.73;61.41;97569.53;10095702;29;20050;-81
2022/04/19 17:46:32;;;;;;;2.00;1.08;;;;;;;5.66;63.05;97559.25;11829327;23;20088;-79
2022/04/19 17:57:38;;;;;;;2.47;1.60;;;;;;;5.95;62.03;97571.38;11030885;23;20045;-82
2022/04/19 18:03:00;;;;;;;1.80;1.40;;;;;;;6.11;62.04;97560.91;10762589;23;20078;-79
2022/04/19 18:08:22;;;;;;;1.70;1.20;;;;;;;6.21;61.07;97566.53;10061488;29;20060;-85
2022/04/19 18:13:43;;;;;;;2.50;1.25;;;;;;;6.21;61.03;97577.63;10089229;29;20053;-82
2022/04/19 18:19:06;;;;;;;2.42;1.30;;;;;;;6.17;60.86;97589.09;10076842;29;20037;-80
2022/04/19 18:43:28;;;;;;;5.05;3.22;;;;;;;5.97;61.51;97615.16;11704068;23;20050;-80
2022/04/19 19:01:21;;;;;;;4.10;2.38;;;;;;;5.84;62.14;97646.63;11334710;23;20038;-82
2022/04/19 19:06:48;;;;;;;3.27;2.40;;;;;;;5.83;61.55;97656.22;10950198;23;20045;-82
2022/04/19 19:12:12;;;;;;;3.85;2.53;;;;;;;5.84;61.71;97670.81;10777800;23;20065;-82
2022/04/19 19:17:34;;;;;;;3.38;2.63;;;;;;;5.82;61.76;97665.84;10087123;29;20046;-81
2022/04/19 19:22:55;;;;;;;4.72;3.22;;;;;;;5.84;61.49;97674.31;10086500;29;20033;-82
2022/04/19 19:28:17;;;;;;;5.43;3.13;;;;;;;5.87;61.11;97678.00;11023569;23;20052;-84
2022/04/19 19:33:42;;;;;;;5.18;2.25;;;;;;;5.85;61.08;97686.88;11494244;23;20052;-84
2022/04/19 19:45:19;;;;;;;3.40;2.33;;;;;;;5.87;60.95;97703.66;10703166;23;19950;-83
2022/04/19 19:56:57;;;;;;;7.97;5.10;;;;;;;5.89;61.41;97703.13;10914219;23;19908;-79
2022/04/19 20:02:23;;;;;;;7.97;5.37;;;;;;;5.90;61.07;97710.13;11621760;23;20053;-83
2022/04/19 20:07:45;;;;;;;5.50;3.90;;;;;;;5.96;61.17;97719.69;10070240;29;20102;-82
2022/04/19 20:19:24;;;;;;;4.75;3.38;;;;;;;6.07;61.20;97723.31;10274749;23;20066;-82
2022/04/19 20:24:46;;;;;;;4.38;3.28;;;;;;;6.19;60.99;97729.91;10092407;29;20029;-81
2022/04/19 20:30:09;;;;;;;4.82;3.35;;;;;;;6.28;61.16;97730.00;10086853;29;20077;-81
2022/04/19 20:35:31;;;;;;;5.18;3.58;;;;;;;6.41;61.37;97728.25;10091902;29;20035;-81
2022/04/19 20:40:55;;;;;;;4.93;3.25;;;;;;;6.43;61.39;97726.38;10091654;29;20033;-80
2022/04/19 20:46:19;;;;;;;8.02;4.47;;;;;;;6.51;61.24;97732.59;10100144;29;20029;-79
2022/04/19 20:51:41;;;;;;;5.83;3.80;;;;;;;6.50;61.24;97736.66;10102528;29;20025;-79
2022/04/19 20:57:04;;;;;;;6.40;3.20;;;;;;;6.51;61.02;97740.91;10099280;29;20029;-77
2022/04/19 21:02:28;;;;;;;4.35;3.15;;;;;;;6.57;61.07;97755.28;10107127;29;20025;-80
2022/04/19 21:14:05;;;;;;;4.22;3.22;;;;;;;6.74;61.01;97753.84;10212362;23;20083;-81
2022/04/19 21:19:27;;;;;;;4.03;3.10;;;;;;;6.77;60.83;97747.16;10049104;29;20037;-79
2022/04/19 21:24:50;;;;;;;4.85;3.17;;;;;;;6.83;61.00;97756.69;10026443;29;20044;-82
2022/04/19 21:30:12;;;;;;;5.30;3.33;;;;;;;6.85;60.86;97751.34;10053060;29;20090;-82
2022/04/19 21:41:49;;;;;;;5.07;3.05;;;;;;;6.73;60.23;97752.38;11600742;23;20061;-84
2022/04/19 21:47:11;;;;;;;5.63;3.30;;;;;;;6.50;60.01;97747.75;10115812;29;20031;-81
2022/04/19 21:52:36;;;;;;;3.78;2.78;;;;;;;6.25;60.36;97752.56;10100758;29;20029;-82
2022/04/19 21:57:57;;;;;;;4.50;3.28;;;;;;;6.06;60.70;97750.28;10128511;29;20048;-81
2022/04/19 22:03:23;;;;;;;4.10;2.78;;;;;;;5.92;60.63;97755.38;10103922;29;20033;-80
2022/04/19 22:08:45;;;;;;;6.40;3.78;;;;;;;5.72;61.41;97761.94;10115742;29;20086;-83
2022/04/19 22:14:07;;;;;;;4.57;3.10;;;;;;;5.62;61.01;97758.28;10115253;29;20094;-83
2022/04/19 22:19:33;;;;;;;4.18;3.28;;;;;;;5.50;61.79;97746.16;10140195;29;20033;-84
2022/04/19 22:24:56;;;;;;;3.65;3.03;;;;;;;5.37;61.00;97747.84;10128609;29;20036;-80
2022/04/19 22:30:19;;;;;;;4.53;2.85;;;;;;;5.24;61.02;97748.09;10111834;29;20033;-84
2022/04/19 22:35:41;;;;;;;3.50;2.88;;;;;;;5.05;61.43;97748.53;10126143;29;20085;-82
2022/04/19 22:41:06;;;;;;;4.25;3.20;;;;;;;4.92;61.83;97745.22;10127698;29;20057;-80
2022/04/19 22:52:43;;;;;;;3.90;3.15;;;;;;;4.74;61.97;97752.66;10844195;23;20060;-83
2022/04/19 22:58:06;;;;;;;3.92;2.88;;;;;;;4.68;61.83;97752.09;10113832;29;20032;-81
2022/04/19 23:03:28;;;;;;;4.15;3.25;;;;;;;4.63;62.05;97745.44;10109825;29;20066;-79
2022/04/19 23:08:50;;;;;;;4.25;3.25;;;;;;;4.49;62.35;97741.44;10093288;29;20025;-79
2022/04/19 23:14:12;;;;;;;5.63;3.60;;;;;;;4.47;62.63;97752.31;10108349;29;20032;-77
2022/04/19 23:19:34;;;;;;;5.70;3.55;;;;;;;4.41;62.40;97748.97;10090757;29;20045;-80
2022/04/19 23:24:56;;;;;;;5.50;3.63;;;;;;;4.29;62.47;97749.34;10102249;29;20065;-81
2022/04/19 23:30:19;;;;;;;7.05;3.97;;;;;;;4.25;62.59;97749.00;10176929;24;20049;-85
2022/04/19 23:35:41;;;;;;;6.32;4.85;;;;;;;4.24;62.78;97753.03;10074226;29;20041;-85
2022/04/19 23:41:03;;;;;;;6.15;4.22;;;;;;;4.27;62.62;97748.44;10086549;29;20034;-81
2022/04/19 23:46:25;;;;;;;6.43;4.78;;;;;;;4.23;62.83;97757.06;10057815;29;20037;-85
2022/04/19 23:51:47;;;;;;;5.50;4.20;;;;;;;4.19;63.17;97751.19;10086265;29;20049;-84
2022/04/19 23:57:09;;;;;;;6.32;4.57;;;;;;;4.13;62.90;97752.66;10085822;29;20109;-83
